Station History

Weather Underground - logo

Station Historical Data
Daily Summary for February 4, 2018 Units:  Both    English   Metric
« Previous Day
Next Day »
Daily Weekly Monthly Yearly Custom
  High: Low: Average:
Temperature: 74.2 °F /  23.4 °C 43.2 °F /  6.2 °C 57.6 °F /  14.2 °C
Dew Point: 54.9 °F /  12.7 °C 41.3 °F /  5.2 °C 49.4 °F /  9.7 °C
Humidity: 95 % 46 % 77 %
Wind Speed: 3.5 mph /  5.6 km/h - 0.4 mph /  0.6 km/h
Wind Gust: 3.5 mph /  5.6 km/h - -
Wind:- - WNW
Pressure: 30.15 in /  1020.9 hPa 30.03 in /  1016.8 hPa -
Precipitation: 0.00 in /  0 mm    
Historical Graphs
 
 
Tabular Data for February 4, 2018
Time Temperature Dew Point Pressure Wind Wind Speed Wind Gust Humidity Rainfall Rate (Hourly)
00:02 47.2 °F /  8.4 °C 44.4 °F /  6.9 °C 30.13 in /  1020.2 hPa Calm     90 % 0.00 in /  0 mm
00:07 47.0 °F /  8.3 °C 44.2 °F /  6.8 °C 30.13 in /  1020.2 hPa Calm     90 % 0.00 in /  0 mm
00:12 46.8 °F /  8.2 °C 44.0 °F /  6.7 °C 30.13 in /  1020.2 hPa Calm     90 % 0.00 in /  0 mm
00:17 46.6 °F /  8.1 °C 43.8 °F /  6.6 °C 30.13 in /  1020.2 hPa Calm     90 % 0.00 in /  0 mm
00:22 46.4 °F /  8 °C 43.6 °F /  6.4 °C 30.13 in /  1020.2 hPa Calm     90 % 0.00 in /  0 mm
00:27 46.5 °F /  8.1 °C 44.0 °F /  6.7 °C 30.13 in /  1020.2 hPa Calm     91 % 0.00 in /  0 mm
00:32 46.5 °F /  8.1 °C 44.0 °F /  6.7 °C 30.13 in /  1020.2 hPa Calm     91 % 0.00 in /  0 mm
00:37 46.4 °F /  8 °C 43.9 °F /  6.6 °C 30.12 in /  1019.9 hPa Calm     91 % 0.00 in /  0 mm
00:42 46.2 °F /  7.9 °C 43.4 °F /  6.3 °C 30.12 in /  1019.9 hPa Calm     90 % 0.00 in /  0 mm
00:47 46.0 °F /  7.8 °C 43.2 °F /  6.2 °C 30.12 in /  1019.9 hPa Calm     90 % 0.00 in /  0 mm
00:52 46.0 °F /  7.8 °C 43.5 °F /  6.4 °C 30.12 in /  1019.9 hPa Calm     91 % 0.00 in /  0 mm
00:57 46.0 °F /  7.8 °C 43.5 °F /  6.4 °C 30.12 in /  1019.9 hPa Calm     91 % 0.00 in /  0 mm
01:02 46.0 °F /  7.8 °C 43.5 °F /  6.4 °C 30.12 in /  1019.9 hPa Calm     91 % 0.00 in /  0 mm
01:07 46.2 °F /  7.9 °C 44.0 °F /  6.7 °C 30.12 in /  1019.9 hPa Calm     92 % 0.00 in /  0 mm
01:12 46.6 °F /  8.1 °C 44.7 °F /  7.1 °C 30.12 in /  1019.9 hPa Calm     93 % 0.00 in /  0 mm
01:17 46.9 °F /  8.3 °C 45.0 °F /  7.2 °C 30.12 in /  1019.9 hPa Calm     93 % 0.00 in /  0 mm
01:22 46.7 °F /  8.2 °C 44.2 °F /  6.8 °C 30.12 in /  1019.9 hPa Calm     91 % 0.00 in /  0 mm
01:27 46.1 °F /  7.8 °C 43.6 °F /  6.4 °C 30.12 in /  1019.9 hPa Calm     91 % 0.00 in /  0 mm
01:32 46.0 °F /  7.8 °C 43.5 °F /  6.4 °C 30.12 in /  1019.9 hPa Calm     91 % 0.00 in /  0 mm
01:37 46.0 °F /  7.8 °C 43.5 °F /  6.4 °C 30.12 in /  1019.9 hPa Calm     91 % 0.00 in /  0 mm
01:42 45.9 °F /  7.7 °C 43.7 °F /  6.5 °C 30.12 in /  1019.9 hPa Calm     92 % 0.00 in /  0 mm
01:47 46.1 °F /  7.8 °C 43.9 °F /  6.6 °C 30.12 in /  1019.9 hPa Calm     92 % 0.00 in /  0 mm
01:52 46.4 °F /  8 °C 44.5 °F /  6.9 °C 30.12 in /  1019.9 hPa Calm     93 % 0.00 in /  0 mm
01:57 46.7 °F /  8.2 °C 44.8 °F /  7.1 °C 30.12 in /  1019.9 hPa Calm     93 % 0.00 in /  0 mm
02:03 46.8 °F /  8.2 °C 44.9 °F /  7.2 °C 30.12 in /  1019.9 hPa Calm     93 % 0.00 in /  0 mm
02:07 46.8 °F /  8.2 °C 44.6 °F /  7 °C 30.13 in /  1020.2 hPa Calm     92 % 0.00 in /  0 mm
02:12 46.9 °F /  8.3 °C 45.0 °F /  7.2 °C 30.12 in /  1019.9 hPa Calm     93 % 0.00 in /  0 mm
02:18 46.9 °F /  8.3 °C 45.0 °F /  7.2 °C 30.12 in /  1019.9 hPa Calm     93 % 0.00 in /  0 mm
02:23 46.9 °F /  8.3 °C 45.0 °F /  7.2 °C 30.13 in /  1020.2 hPa Calm     93 % 0.00 in /  0 mm
02:28 46.7 °F /  8.2 °C 44.5 °F /  6.9 °C 30.12 in /  1019.9 hPa Calm     92 % 0.00 in /  0 mm
02:33 46.7 °F /  8.2 °C 44.8 °F /  7.1 °C 30.13 in /  1020.2 hPa Calm     93 % 0.00 in /  0 mm
02:38 46.7 °F /  8.2 °C 44.8 °F /  7.1 °C 30.13 in /  1020.2 hPa Calm     93 % 0.00 in /  0 mm
02:43 46.5 °F /  8.1 °C 44.3 °F /  6.8 °C 30.12 in /  1019.9 hPa Calm     92 % 0.00 in /  0 mm
02:48 45.9 °F /  7.7 °C 43.4 °F /  6.3 °C 30.12 in /  1019.9 hPa Calm     91 % 0.00 in /  0 mm
02:53 46.1 °F /  7.8 °C 44.2 °F /  6.8 °C 30.12 in /  1019.9 hPa Calm     93 % 0.00 in /  0 mm
02:58 46.5 °F /  8.1 °C 44.9 °F /  7.2 °C 30.12 in /  1019.9 hPa Calm     94 % 0.00 in /  0 mm
03:03 46.9 °F /  8.3 °C 45.3 °F /  7.4 °C 30.12 in /  1019.9 hPa Calm     94 % 0.00 in /  0 mm
03:08 47.2 °F /  8.4 °C 45.6 °F /  7.6 °C 30.12 in /  1019.9 hPa WNW 1.2 mph /  1.9 km/h   94 % 0.00 in /  0 mm
03:13 47.7 °F /  8.7 °C 46.1 °F /  7.8 °C 30.12 in /  1019.9 hPa WNW 1.2 mph /  1.9 km/h   94 % 0.00 in /  0 mm
03:18 48.3 °F /  9.1 °C 46.4 °F /  8 °C 30.11 in /  1019.5 hPa WNW 1.2 mph /  1.9 km/h   93 % 0.00 in /  0 mm
03:23 48.7 °F /  9.3 °C 46.5 °F /  8.1 °C 30.11 in /  1019.5 hPa WNW 1.2 mph /  1.9 km/h   92 % 0.00 in /  0 mm
03:28 49.1 °F /  9.5 °C 46.6 °F /  8.1 °C 30.11 in /  1019.5 hPa WNW 1.0 mph /  1.6 km/h   91 % 0.00 in /  0 mm
03:33 49.5 °F /  9.7 °C 46.7 °F /  8.2 °C 30.11 in /  1019.5 hPa WNW 1.2 mph /  1.9 km/h   90 % 0.00 in /  0 mm
03:38 49.7 °F /  9.8 °C 46.9 °F /  8.3 °C 30.11 in /  1019.5 hPa WNW 1.2 mph /  1.9 km/h   90 % 0.00 in /  0 mm
03:43 49.9 °F /  9.9 °C 46.8 °F /  8.2 °C 30.11 in /  1019.5 hPa Calm     89 % 0.00 in /  0 mm
03:48 49.7 °F /  9.8 °C 46.3 °F /  7.9 °C 30.11 in /  1019.5 hPa WNW 1.2 mph /  1.9 km/h   88 % 0.00 in /  0 mm
03:53 49.3 °F /  9.6 °C 45.9 °F /  7.7 °C 30.11 in /  1019.5 hPa Calm     88 % 0.00 in /  0 mm
03:58 48.8 °F /  9.3 °C 45.7 °F /  7.6 °C 30.11 in /  1019.5 hPa Calm     89 % 0.00 in /  0 mm
04:03 48.9 °F /  9.4 °C 46.1 °F /  7.8 °C 30.11 in /  1019.5 hPa North 1.0 mph /  1.6 km/h 1.0 mph /  1.6 km/h 90 % 0.00 in /  0 mm
04:08 49.0 °F /  9.4 °C 46.2 °F /  7.9 °C 30.11 in /  1019.5 hPa Calm     90 % 0.00 in /  0 mm
04:13 49.0 °F /  9.4 °C 46.2 °F /  7.9 °C 30.11 in /  1019.5 hPa Calm     90 % 0.00 in /  0 mm
04:18 49.1 °F /  9.5 °C 46.3 °F /  7.9 °C 30.11 in /  1019.5 hPa Calm     90 % 0.00 in /  0 mm
04:23 49.1 °F /  9.5 °C 46.3 °F /  7.9 °C 30.11 in /  1019.5 hPa Calm     90 % 0.00 in /  0 mm
04:28 49.0 °F /  9.4 °C 46.2 °F /  7.9 °C 30.11 in /  1019.5 hPa Calm     90 % 0.00 in /  0 mm
04:33 48.9 °F /  9.4 °C 46.1 °F /  7.8 °C 30.10 in /  1019.2 hPa Calm   0.1 mph /  0.2 km/h 90 % 0.00 in /  0 mm
04:38 48.9 °F /  9.4 °C 46.1 °F /  7.8 °C 30.11 in /  1019.5 hPa NNW 1.2 mph /  1.9 km/h 1.2 mph /  1.9 km/h 90 % 0.00 in /  0 mm
04:43 48.9 °F /  9.4 °C 46.1 °F /  7.8 °C 30.10 in /  1019.2 hPa North 1.2 mph /  1.9 km/h   90 % 0.00 in /  0 mm
04:48 48.8 °F /  9.3 °C 46.0 °F /  7.8 °C 30.11 in /  1019.5 hPa North 1.2 mph /  1.9 km/h   90 % 0.00 in /  0 mm
04:53 48.3 °F /  9.1 °C 45.2 °F /  7.3 °C 30.11 in /  1019.5 hPa Calm     89 % 0.00 in /  0 mm
04:58 48.1 °F /  8.9 °C 45.3 °F /  7.4 °C 30.11 in /  1019.5 hPa Calm     90 % 0.00 in /  0 mm
05:03 47.3 °F /  8.5 °C 44.2 °F /  6.8 °C 30.11 in /  1019.5 hPa Calm     89 % 0.00 in /  0 mm
05:08 46.5 °F /  8.1 °C 43.4 °F /  6.3 °C 30.11 in /  1019.5 hPa Calm     89 % 0.00 in /  0 mm
05:13 45.9 °F /  7.7 °C 43.1 °F /  6.2 °C 30.11 in /  1019.5 hPa Calm     90 % 0.00 in /  0 mm
05:18 45.5 °F /  7.5 °C 42.7 °F /  5.9 °C 30.11 in /  1019.5 hPa Calm     90 % 0.00 in /  0 mm
05:23 45.3 °F /  7.4 °C 42.8 °F /  6 °C 30.11 in /  1019.5 hPa Calm     91 % 0.00 in /  0 mm
05:28 45.1 °F /  7.3 °C 42.6 °F /  5.9 °C 30.11 in /  1019.5 hPa Calm     91 % 0.00 in /  0 mm
05:33 44.8 °F /  7.1 °C 42.3 °F /  5.7 °C 30.11 in /  1019.5 hPa Calm     91 % 0.00 in /  0 mm
05:38 44.5 °F /  6.9 °C 42.3 °F /  5.7 °C 30.11 in /  1019.5 hPa Calm     92 % 0.00 in /  0 mm
05:43 44.5 °F /  6.9 °C 42.3 °F /  5.7 °C 30.11 in /  1019.5 hPa Calm     92 % 0.00 in /  0 mm
05:48 44.5 °F /  6.9 °C 42.6 °F /  5.9 °C 30.11 in /  1019.5 hPa Calm     93 % 0.00 in /  0 mm
05:53 44.4 °F /  6.9 °C 42.5 °F /  5.8 °C 30.11 in /  1019.5 hPa Calm     93 % 0.00 in /  0 mm
05:58 44.3 °F /  6.8 °C 42.4 °F /  5.8 °C 30.11 in /  1019.5 hPa Calm     93 % 0.00 in /  0 mm
06:03 44.2 °F /  6.8 °C 42.3 °F /  5.7 °C 30.11 in /  1019.5 hPa Calm     93 % 0.00 in /  0 mm
06:08 44.1 °F /  6.7 °C 42.2 °F /  5.7 °C 30.12 in /  1019.9 hPa Calm     93 % 0.00 in /  0 mm
06:13 44.0 °F /  6.7 °C 42.1 °F /  5.6 °C 30.12 in /  1019.9 hPa Calm     93 % 0.00 in /  0 mm
06:18 43.7 °F /  6.5 °C 41.8 °F /  5.4 °C 30.13 in /  1020.2 hPa Calm     93 % 0.00 in /  0 mm
06:23 43.3 °F /  6.3 °C 41.4 °F /  5.2 °C 30.13 in /  1020.2 hPa Calm     93 % 0.00 in /  0 mm
06:29 43.2 °F /  6.2 °C 41.3 °F /  5.2 °C 30.13 in /  1020.2 hPa Calm     93 % 0.00 in /  0 mm
06:34 43.2 °F /  6.2 °C 41.3 °F /  5.2 °C 30.13 in /  1020.2 hPa Calm     93 % 0.00 in /  0 mm
06:39 43.6 °F /  6.4 °C 42.0 °F /  5.6 °C 30.13 in /  1020.2 hPa Calm     94 % 0.00 in /  0 mm
06:44 43.8 °F /  6.6 °C 42.2 °F /  5.7 °C 30.13 in /  1020.2 hPa Calm     94 % 0.00 in /  0 mm
06:49 43.9 °F /  6.6 °C 42.3 °F /  5.7 °C 30.14 in /  1020.5 hPa Calm     94 % 0.00 in /  0 mm
06:54 43.9 °F /  6.6 °C 42.3 °F /  5.7 °C 30.14 in /  1020.5 hPa Calm     94 % 0.00 in /  0 mm
06:59 43.8 °F /  6.6 °C 42.2 °F /  5.7 °C 30.14 in /  1020.5 hPa Calm     94 % 0.00 in /  0 mm
07:04 43.8 °F /  6.6 °C 42.2 °F /  5.7 °C 30.14 in /  1020.5 hPa Calm     94 % 0.00 in /  0 mm
07:09 43.9 °F /  6.6 °C 42.3 °F /  5.7 °C 30.14 in /  1020.5 hPa Calm     94 % 0.00 in /  0 mm
07:14 44.1 °F /  6.7 °C 42.5 °F /  5.8 °C 30.14 in /  1020.5 hPa Calm     94 % 0.00 in /  0 mm
07:19 44.3 °F /  6.8 °C 43.0 °F /  6.1 °C 30.14 in /  1020.5 hPa Calm     95 % 0.00 in /  0 mm
07:24 44.5 °F /  6.9 °C 42.9 °F /  6.1 °C 30.15 in /  1020.9 hPa Calm     94 % 0.00 in /  0 mm
07:29 44.6 °F /  7 °C 43.0 °F /  6.1 °C 30.14 in /  1020.5 hPa Calm     94 % 0.00 in /  0 mm
07:34 44.5 °F /  6.9 °C 42.9 °F /  6.1 °C 30.15 in /  1020.9 hPa Calm     94 % 0.00 in /  0 mm
07:39 44.9 °F /  7.2 °C 43.3 °F /  6.3 °C 30.15 in /  1020.9 hPa Calm     94 % 0.00 in /  0 mm
07:44 45.3 °F /  7.4 °C 43.7 °F /  6.5 °C 30.14 in /  1020.5 hPa Calm     94 % 0.00 in /  0 mm
07:49 45.9 °F /  7.7 °C 44.3 °F /  6.8 °C 30.14 in /  1020.5 hPa Calm     94 % 0.00 in /  0 mm
07:54 46.8 °F /  8.2 °C 45.4 °F /  7.4 °C 30.14 in /  1020.5 hPa Calm     95 % 0.00 in /  0 mm
07:59 48.1 °F /  8.9 °C 46.7 °F /  8.2 °C 30.14 in /  1020.5 hPa North 1.0 mph /  1.6 km/h   95 % 0.00 in /  0 mm
08:04 49.2 °F /  9.6 °C 47.3 °F /  8.5 °C 30.14 in /  1020.5 hPa Calm     93 % 0.00 in /  0 mm
08:09 49.9 °F /  9.9 °C 47.4 °F /  8.6 °C 30.15 in /  1020.9 hPa Calm     91 % 0.00 in /  0 mm
08:14 50.6 °F /  10.3 °C 47.8 °F /  8.8 °C 30.15 in /  1020.9 hPa Calm     90 % 0.00 in /  0 mm
08:19 51.1 °F /  10.6 °C 48.0 °F /  8.9 °C 30.14 in /  1020.5 hPa Calm     89 % 0.00 in /  0 mm
08:24 51.8 °F /  11 °C 48.7 °F /  9.3 °C 30.14 in /  1020.5 hPa Calm     89 % 0.00 in /  0 mm
08:29 52.8 °F /  11.6 °C 49.3 °F /  9.6 °C 30.15 in /  1020.9 hPa Calm     88 % 0.00 in /  0 mm
08:34 53.2 °F /  11.8 °C 49.1 °F /  9.5 °C 30.15 in /  1020.9 hPa Calm     86 % 0.00 in /  0 mm
08:39 53.8 °F /  12.1 °C 50.0 °F /  10 °C 30.14 in /  1020.5 hPa Calm     87 % 0.00 in /  0 mm
08:44 54.9 °F /  12.7 °C 50.8 °F /  10.4 °C 30.14 in /  1020.5 hPa Calm     86 % 0.00 in /  0 mm
08:49 56.1 °F /  13.4 °C 51.7 °F /  10.9 °C 30.14 in /  1020.5 hPa Calm     85 % 0.00 in /  0 mm
08:54 56.7 °F /  13.7 °C 51.3 °F /  10.7 °C 30.14 in /  1020.5 hPa Calm     82 % 0.00 in /  0 mm
08:59 56.8 °F /  13.8 °C 51.4 °F /  10.8 °C 30.14 in /  1020.5 hPa Calm     82 % 0.00 in /  0 mm
09:04 57.3 °F /  14.1 °C 51.9 °F /  11.1 °C 30.15 in /  1020.9 hPa Calm   0.1 mph /  0.2 km/h 82 % 0.00 in /  0 mm
09:09 57.5 °F /  14.2 °C 51.7 °F /  10.9 °C 30.14 in /  1020.5 hPa Calm     81 % 0.00 in /  0 mm
09:14 57.9 °F /  14.4 °C 51.8 °F /  11 °C 30.14 in /  1020.5 hPa Calm     80 % 0.00 in /  0 mm
09:19 58.5 °F /  14.7 °C 52.4 °F /  11.3 °C 30.14 in /  1020.5 hPa Calm     80 % 0.00 in /  0 mm
09:24 59.5 °F /  15.3 °C 52.3 °F /  11.3 °C 30.14 in /  1020.5 hPa NW 1.2 mph /  1.9 km/h   77 % 0.00 in /  0 mm
09:29 60.1 °F /  15.6 °C 52.5 °F /  11.4 °C 30.14 in /  1020.5 hPa Calm     76 % 0.00 in /  0 mm
09:34 61.3 °F /  16.3 °C 52.2 °F /  11.2 °C 30.14 in /  1020.5 hPa Calm     72 % 0.00 in /  0 mm
09:39 61.8 °F /  16.6 °C 52.3 °F /  11.3 °C 30.14 in /  1020.5 hPa WNW 1.2 mph /  1.9 km/h   71 % 0.00 in /  0 mm
09:44 61.8 °F /  16.6 °C 51.5 °F /  10.8 °C 30.14 in /  1020.5 hPa Calm     69 % 0.00 in /  0 mm
09:49 62.2 °F /  16.8 °C 51.9 °F /  11.1 °C 30.15 in /  1020.9 hPa Calm     69 % 0.00 in /  0 mm
09:54 62.4 °F /  16.9 °C 51.3 °F /  10.7 °C 30.15 in /  1020.9 hPa Calm     67 % 0.00 in /  0 mm
09:59 62.7 °F /  17.1 °C 51.6 °F /  10.9 °C 30.15 in /  1020.9 hPa Calm     67 % 0.00 in /  0 mm
10:04 63.3 °F /  17.4 °C 52.2 °F /  11.2 °C 30.15 in /  1020.9 hPa Calm     67 % 0.00 in /  0 mm
10:09 63.8 °F /  17.7 °C 51.8 °F /  11 °C 30.15 in /  1020.9 hPa WNW 2.3 mph /  3.7 km/h 2.3 mph /  3.7 km/h 65 % 0.00 in /  0 mm
10:14 64.1 °F /  17.8 °C 52.5 °F /  11.4 °C 30.15 in /  1020.9 hPa Calm     66 % 0.00 in /  0 mm
10:19 64.6 °F /  18.1 °C 52.1 °F /  11.2 °C 30.15 in /  1020.9 hPa Calm     64 % 0.00 in /  0 mm
10:24 64.9 °F /  18.3 °C 51.6 °F /  10.9 °C 30.15 in /  1020.9 hPa Calm     62 % 0.00 in /  0 mm
10:29 65.2 °F /  18.4 °C 51.4 °F /  10.8 °C 30.15 in /  1020.9 hPa Calm     61 % 0.00 in /  0 mm
10:34 65.6 °F /  18.7 °C 51.8 °F /  11 °C 30.15 in /  1020.9 hPa Calm     61 % 0.00 in /  0 mm
10:39 65.8 °F /  18.8 °C 52.0 °F /  11.1 °C 30.15 in /  1020.9 hPa Calm     61 % 0.00 in /  0 mm
10:44 66.3 °F /  19.1 °C 52.4 °F /  11.3 °C 30.15 in /  1020.9 hPa North 1.2 mph /  1.9 km/h 1.2 mph /  1.9 km/h 61 % 0.00 in /  0 mm
10:49 66.7 °F /  19.3 °C 51.9 °F /  11.1 °C 30.14 in /  1020.5 hPa WSW 1.2 mph /  1.9 km/h 1.2 mph /  1.9 km/h 59 % 0.00 in /  0 mm
10:54 67.2 °F /  19.6 °C 53.3 °F /  11.8 °C 30.14 in /  1020.5 hPa Calm     61 % 0.00 in /  0 mm
10:59 67.5 °F /  19.7 °C 51.7 °F /  10.9 °C 30.14 in /  1020.5 hPa West 3.5 mph /  5.6 km/h 3.5 mph /  5.6 km/h 57 % 0.00 in /  0 mm
11:04 67.6 °F /  19.8 °C 52.3 °F /  11.3 °C 30.14 in /  1020.5 hPa North 2.3 mph /  3.7 km/h 2.3 mph /  3.7 km/h 58 % 0.00 in /  0 mm
11:09 67.9 °F /  19.9 °C 52.1 °F /  11.2 °C 30.14 in /  1020.5 hPa SW 2.3 mph /  3.7 km/h 2.3 mph /  3.7 km/h 57 % 0.00 in /  0 mm
11:14 68.0 °F /  20 °C 52.7 °F /  11.5 °C 30.14 in /  1020.5 hPa WSW 2.0 mph /  3.2 km/h 2.0 mph /  3.2 km/h 58 % 0.00 in /  0 mm
11:19 68.3 °F /  20.2 °C 52.9 °F /  11.6 °C 30.14 in /  1020.5 hPa NW 3.5 mph /  5.6 km/h 3.5 mph /  5.6 km/h 58 % 0.00 in /  0 mm
11:24 68.7 °F /  20.4 °C 53.3 °F /  11.8 °C 30.13 in /  1020.2 hPa NW 2.3 mph /  3.7 km/h 2.3 mph /  3.7 km/h 58 % 0.00 in /  0 mm
11:29 68.9 °F /  20.5 °C 53.0 °F /  11.7 °C 30.13 in /  1020.2 hPa NW 1.2 mph /  1.9 km/h 1.2 mph /  1.9 km/h 57 % 0.00 in /  0 mm
11:34 69.2 °F /  20.7 °C 53.8 °F /  12.1 °C 30.13 in /  1020.2 hPa WNW 1.0 mph /  1.6 km/h 1.0 mph /  1.6 km/h 58 % 0.00 in /  0 mm
11:39 69.6 °F /  20.9 °C 53.2 °F /  11.8 °C 30.13 in /  1020.2 hPa NW 1.2 mph /  1.9 km/h 1.2 mph /  1.9 km/h 56 % 0.00 in /  0 mm
11:44 69.9 °F /  21.1 °C 54.0 °F /  12.2 °C 30.12 in /  1019.9 hPa WNW 2.0 mph /  3.2 km/h 2.0 mph /  3.2 km/h 57 % 0.00 in /  0 mm
11:49 70.0 °F /  21.1 °C 53.6 °F /  12 °C 30.12 in /  1019.9 hPa WNW 1.2 mph /  1.9 km/h   56 % 0.00 in /  0 mm
11:54 70.3 °F /  21.3 °C 54.3 °F /  12.4 °C 30.11 in /  1019.5 hPa North 2.3 mph /  3.7 km/h 2.3 mph /  3.7 km/h 57 % 0.00 in /  0 mm
11:59 70.4 °F /  21.3 °C 53.5 °F /  11.9 °C 30.11 in /  1019.5 hPa NW 2.3 mph /  3.7 km/h 2.3 mph /  3.7 km/h 55 % 0.00 in /  0 mm
12:04 70.4 °F /  21.3 °C 54.4 °F /  12.4 °C 30.11 in /  1019.5 hPa NW 3.5 mph /  5.6 km/h 3.5 mph /  5.6 km/h 57 % 0.00 in /  0 mm
12:09 70.7 °F /  21.5 °C 54.2 °F /  12.3 °C 30.10 in /  1019.2 hPa NW 2.3 mph /  3.7 km/h 2.3 mph /  3.7 km/h 56 % 0.00 in /  0 mm
12:14 70.9 °F /  21.6 °C 53.9 °F /  12.2 °C 30.10 in /  1019.2 hPa Calm     55 % 0.00 in /  0 mm
12:19 71.1 °F /  21.7 °C 54.1 °F /  12.3 °C 30.10 in /  1019.2 hPa WSW 3.5 mph /  5.6 km/h 3.5 mph /  5.6 km/h 55 % 0.00 in /  0 mm
12:24 71.0 °F /  21.7 °C 54.0 °F /  12.2 °C 30.09 in /  1018.8 hPa NW 2.3 mph /  3.7 km/h 2.3 mph /  3.7 km/h 55 % 0.00 in /  0 mm
12:30 71.3 °F /  21.8 °C 54.3 °F /  12.4 °C 30.09 in /  1018.8 hPa NW 1.2 mph /  1.9 km/h 1.2 mph /  1.9 km/h 55 % 0.00 in /  0 mm
12:35 71.5 °F /  21.9 °C 54.0 °F /  12.2 °C 30.09 in /  1018.8 hPa NW 2.3 mph /  3.7 km/h 2.3 mph /  3.7 km/h 54 % 0.00 in /  0 mm
12:40 71.9 °F /  22.2 °C 53.8 °F /  12.1 °C 30.08 in /  1018.5 hPa NW 3.0 mph /  4.8 km/h 3.0 mph /  4.8 km/h 53 % 0.00 in /  0 mm
12:45 71.9 °F /  22.2 °C 53.3 °F /  11.8 °C 30.08 in /  1018.5 hPa North 2.3 mph /  3.7 km/h   52 % 0.00 in /  0 mm
12:50 72.3 °F /  22.4 °C 54.7 °F /  12.6 °C 30.08 in /  1018.5 hPa WNW 2.0 mph /  3.2 km/h 2.0 mph /  3.2 km/h 54 % 0.00 in /  0 mm
12:55 72.5 °F /  22.5 °C 54.9 °F /  12.7 °C 30.07 in /  1018.2 hPa WNW 1.2 mph /  1.9 km/h 1.2 mph /  1.9 km/h 54 % 0.00 in /  0 mm
13:00 72.4 °F /  22.4 °C 53.8 °F /  12.1 °C 30.07 in /  1018.2 hPa West 2.3 mph /  3.7 km/h 2.3 mph /  3.7 km/h 52 % 0.00 in /  0 mm
13:05 72.4 °F /  22.4 °C 54.8 °F /  12.7 °C 30.06 in /  1017.8 hPa NW 3.5 mph /  5.6 km/h 3.5 mph /  5.6 km/h 54 % 0.00 in /  0 mm
13:10 72.4 °F /  22.4 °C 54.3 °F /  12.4 °C 30.06 in /  1017.8 hPa WNW 1.2 mph /  1.9 km/h 1.2 mph /  1.9 km/h 53 % 0.00 in /  0 mm
13:15 72.6 °F /  22.6 °C 54.0 °F /  12.2 °C 30.06 in /  1017.8 hPa Calm     52 % 0.00 in /  0 mm
13:20 72.6 °F /  22.6 °C 53.4 °F /  11.9 °C 30.06 in /  1017.8 hPa Calm     51 % 0.00 in /  0 mm
13:25 72.8 °F /  22.7 °C 54.1 °F /  12.3 °C 30.06 in /  1017.8 hPa NW 2.3 mph /  3.7 km/h 2.3 mph /  3.7 km/h 52 % 0.00 in /  0 mm
13:30 72.9 °F /  22.7 °C 53.7 °F /  12.1 °C 30.06 in /  1017.8 hPa NW 1.2 mph /  1.9 km/h   51 % 0.00 in /  0 mm
13:35 72.9 °F /  22.7 °C 53.7 °F /  12.1 °C 30.05 in /  1017.5 hPa NW 1.0 mph /  1.6 km/h 1.0 mph /  1.6 km/h 51 % 0.00 in /  0 mm
13:40 72.8 °F /  22.7 °C 53.1 °F /  11.7 °C 30.05 in /  1017.5 hPa WNW 1.2 mph /  1.9 km/h 1.2 mph /  1.9 km/h 50 % 0.00 in /  0 mm
13:45 72.8 °F /  22.7 °C 53.1 °F /  11.7 °C 30.05 in /  1017.5 hPa Calm     50 % 0.00 in /  0 mm
13:50 73.0 °F /  22.8 °C 53.3 °F /  11.8 °C 30.05 in /  1017.5 hPa Calm     50 % 0.00 in /  0 mm
13:55 73.0 °F /  22.8 °C 54.9 °F /  12.7 °C 30.05 in /  1017.5 hPa NW 2.3 mph /  3.7 km/h 2.3 mph /  3.7 km/h 53 % 0.00 in /  0 mm
14:00 73.0 °F /  22.8 °C 53.8 °F /  12.1 °C 30.04 in /  1017.2 hPa Calm     51 % 0.00 in /  0 mm
14:05 73.1 °F /  22.8 °C 53.9 °F /  12.2 °C 30.04 in /  1017.2 hPa Calm     51 % 0.00 in /  0 mm
14:10 73.2 °F /  22.9 °C 53.4 °F /  11.9 °C 30.04 in /  1017.2 hPa WNW 1.2 mph /  1.9 km/h 1.2 mph /  1.9 km/h 50 % 0.00 in /  0 mm
14:15 73.2 °F /  22.9 °C 53.4 °F /  11.9 °C 30.04 in /  1017.2 hPa WNW 1.2 mph /  1.9 km/h 1.2 mph /  1.9 km/h 50 % 0.00 in /  0 mm
14:20 73.5 °F /  23.1 °C 53.7 °F /  12.1 °C 30.04 in /  1017.2 hPa WNW 1.2 mph /  1.9 km/h   50 % 0.00 in /  0 mm
14:25 73.8 °F /  23.2 °C 52.9 °F /  11.6 °C 30.04 in /  1017.2 hPa WNW 1.0 mph /  1.6 km/h   48 % 0.00 in /  0 mm
14:30 73.9 °F /  23.3 °C 53.0 °F /  11.7 °C 30.04 in /  1017.2 hPa Calm     48 % 0.00 in /  0 mm
14:35 73.9 °F /  23.3 °C 53.0 °F /  11.7 °C 30.04 in /  1017.2 hPa NW 1.2 mph /  1.9 km/h 1.2 mph /  1.9 km/h 48 % 0.00 in /  0 mm
14:40 73.8 °F /  23.2 °C 52.9 °F /  11.6 °C 30.04 in /  1017.2 hPa NW 1.2 mph /  1.9 km/h   48 % 0.00 in /  0 mm
14:45 74.0 °F /  23.3 °C 53.6 °F /  12 °C 30.04 in /  1017.2 hPa West 1.0 mph /  1.6 km/h   49 % 0.00 in /  0 mm
14:50 74.2 °F /  23.4 °C 52.1 °F /  11.2 °C 30.04 in /  1017.2 hPa Calm     46 % 0.00 in /  0 mm
14:55 74.2 °F /  23.4 °C 53.2 °F /  11.8 °C 30.03 in /  1016.8 hPa West 1.2 mph /  1.9 km/h   48 % 0.00 in /  0 mm
15:00 74.0 °F /  23.3 °C 52.5 °F /  11.4 °C 30.03 in /  1016.8 hPa NW 1.2 mph /  1.9 km/h 1.2 mph /  1.9 km/h 47 % 0.00 in /  0 mm
15:05 74.0 °F /  23.3 °C 52.5 °F /  11.4 °C 30.03 in /  1016.8 hPa NW 2.3 mph /  3.7 km/h 2.3 mph /  3.7 km/h 47 % 0.00 in /  0 mm
15:10 74.0 °F /  23.3 °C 52.5 °F /  11.4 °C 30.03 in /  1016.8 hPa WNW 2.0 mph /  3.2 km/h 2.0 mph /  3.2 km/h 47 % 0.00 in /  0 mm
15:15 73.8 °F /  23.2 °C 52.9 °F /  11.6 °C 30.03 in /  1016.8 hPa WNW 1.2 mph /  1.9 km/h 1.2 mph /  1.9 km/h 48 % 0.00 in /  0 mm
15:20 73.7 °F /  23.2 °C 52.2 °F /  11.2 °C 30.03 in /  1016.8 hPa WNW 1.2 mph /  1.9 km/h 1.2 mph /  1.9 km/h 47 % 0.00 in /  0 mm
15:25 73.5 °F /  23.1 °C 52.6 °F /  11.4 °C 30.03 in /  1016.8 hPa NW 1.2 mph /  1.9 km/h 1.2 mph /  1.9 km/h 48 % 0.00 in /  0 mm
15:30 73.5 °F /  23.1 °C 52.0 °F /  11.1 °C 30.03 in /  1016.8 hPa NW 1.2 mph /  1.9 km/h 1.2 mph /  1.9 km/h 47 % 0.00 in /  0 mm
15:35 73.6 °F /  23.1 °C 52.7 °F /  11.5 °C 30.03 in /  1016.8 hPa WNW 2.3 mph /  3.7 km/h   48 % 0.00 in /  0 mm
15:40 73.7 °F /  23.2 °C 52.8 °F /  11.6 °C 30.03 in /  1016.8 hPa NW 3.5 mph /  5.6 km/h 3.5 mph /  5.6 km/h 48 % 0.00 in /  0 mm
15:45 73.7 °F /  23.2 °C 52.8 °F /  11.6 °C 30.03 in /  1016.8 hPa NW 2.3 mph /  3.7 km/h 2.3 mph /  3.7 km/h 48 % 0.00 in /  0 mm
15:50 73.5 °F /  23.1 °C 52.0 °F /  11.1 °C 30.03 in /  1016.8 hPa NW 1.2 mph /  1.9 km/h 1.2 mph /  1.9 km/h 47 % 0.00 in /  0 mm
15:55 73.4 °F /  23 °C 52.5 °F /  11.4 °C 30.03 in /  1016.8 hPa WNW 2.3 mph /  3.7 km/h 2.3 mph /  3.7 km/h 48 % 0.00 in /  0 mm
16:00 73.3 °F /  22.9 °C 53.0 °F /  11.7 °C 30.03 in /  1016.8 hPa NW 1.2 mph /  1.9 km/h 1.3 mph /  2.1 km/h 49 % 0.00 in /  0 mm
16:05 72.9 °F /  22.7 °C 53.2 °F /  11.8 °C 30.03 in /  1016.8 hPa NW 1.2 mph /  1.9 km/h 1.2 mph /  1.9 km/h 50 % 0.00 in /  0 mm
16:10 72.5 °F /  22.5 °C 53.9 °F /  12.2 °C 30.03 in /  1016.8 hPa WNW 1.2 mph /  1.9 km/h 1.2 mph /  1.9 km/h 52 % 0.00 in /  0 mm
16:15 72.1 °F /  22.3 °C 54.5 °F /  12.5 °C 30.03 in /  1016.8 hPa NW 1.2 mph /  1.9 km/h 1.2 mph /  1.9 km/h 54 % 0.00 in /  0 mm
16:20 71.6 °F /  22 °C 54.6 °F /  12.6 °C 30.03 in /  1016.8 hPa NW 1.2 mph /  1.9 km/h 1.2 mph /  1.9 km/h 55 % 0.00 in /  0 mm
16:25 71.2 °F /  21.8 °C 54.2 °F /  12.3 °C 30.03 in /  1016.8 hPa WNW 1.2 mph /  1.9 km/h 1.2 mph /  1.9 km/h 55 % 0.00 in /  0 mm
16:30 71.0 °F /  21.7 °C 54.0 °F /  12.2 °C 30.03 in /  1016.8 hPa Calm     55 % 0.00 in /  0 mm
16:35 70.7 °F /  21.5 °C 54.2 °F /  12.3 °C 30.03 in /  1016.8 hPa Calm     56 % 0.00 in /  0 mm
16:40 70.4 °F /  21.3 °C 54.0 °F /  12.2 °C 30.03 in /  1016.8 hPa Calm     56 % 0.00 in /  0 mm
16:45 70.2 °F /  21.2 °C 53.8 °F /  12.1 °C 30.03 in /  1016.8 hPa Calm     56 % 0.00 in /  0 mm
16:50 69.9 °F /  21.1 °C 53.5 °F /  11.9 °C 30.03 in /  1016.8 hPa Calm     56 % 0.00 in /  0 mm
16:55 69.7 °F /  20.9 °C 53.3 °F /  11.8 °C 30.03 in /  1016.8 hPa Calm     56 % 0.00 in /  0 mm
17:00 69.5 °F /  20.8 °C 53.6 °F /  12 °C 30.03 in /  1016.8 hPa Calm     57 % 0.00 in /  0 mm
17:05 69.3 °F /  20.7 °C 53.4 °F /  11.9 °C 30.04 in /  1017.2 hPa Calm     57 % 0.00 in /  0 mm
17:10 68.9 °F /  20.5 °C 53.0 °F /  11.7 °C 30.04 in /  1017.2 hPa Calm     57 % 0.00 in /  0 mm
17:15 68.4 °F /  20.2 °C 53.5 °F /  11.9 °C 30.03 in /  1016.8 hPa Calm     59 % 0.00 in /  0 mm
17:20 67.8 °F /  19.9 °C 53.9 °F /  12.2 °C 30.03 in /  1016.8 hPa Calm     61 % 0.00 in /  0 mm
17:25 67.1 °F /  19.5 °C 54.1 °F /  12.3 °C 30.04 in /  1017.2 hPa Calm     63 % 0.00 in /  0 mm
17:30 66.4 °F /  19.1 °C 54.3 °F /  12.4 °C 30.04 in /  1017.2 hPa Calm     65 % 0.00 in /  0 mm
17:35 65.6 °F /  18.7 °C 53.9 °F /  12.2 °C 30.04 in /  1017.2 hPa Calm     66 % 0.00 in /  0 mm
17:41 65.0 °F /  18.3 °C 53.8 °F /  12.1 °C 30.04 in /  1017.2 hPa Calm     67 % 0.00 in /  0 mm
17:46 64.7 °F /  18.2 °C 53.9 °F /  12.2 °C 30.04 in /  1017.2 hPa Calm     68 % 0.00 in /  0 mm
17:51 64.5 °F /  18.1 °C 54.1 °F /  12.3 °C 30.04 in /  1017.2 hPa Calm     69 % 0.00 in /  0 mm
17:56 64.3 °F /  17.9 °C 53.9 °F /  12.2 °C 30.04 in /  1017.2 hPa Calm     69 % 0.00 in /  0 mm
18:01 63.8 °F /  17.7 °C 53.8 °F /  12.1 °C 30.04 in /  1017.2 hPa Calm     70 % 0.00 in /  0 mm
18:06 63.2 °F /  17.3 °C 53.6 °F /  12 °C 30.04 in /  1017.2 hPa Calm     71 % 0.00 in /  0 mm
18:11 62.6 °F /  17 °C 54.2 °F /  12.3 °C 30.04 in /  1017.2 hPa Calm     74 % 0.00 in /  0 mm
18:16 62.3 °F /  16.8 °C 53.9 °F /  12.2 °C 30.05 in /  1017.5 hPa Calm     74 % 0.00 in /  0 mm
18:21 62.2 °F /  16.8 °C 54.2 °F /  12.3 °C 30.05 in /  1017.5 hPa Calm     75 % 0.00 in /  0 mm
18:26 62.0 °F /  16.7 °C 54.0 °F /  12.2 °C 30.05 in /  1017.5 hPa Calm     75 % 0.00 in /  0 mm
18:31 61.6 °F /  16.4 °C 54.0 °F /  12.2 °C 30.05 in /  1017.5 hPa Calm     76 % 0.00 in /  0 mm
18:36 61.4 °F /  16.3 °C 53.8 °F /  12.1 °C 30.05 in /  1017.5 hPa Calm     76 % 0.00 in /  0 mm
18:41 61.1 °F /  16.2 °C 53.8 °F /  12.1 °C 30.05 in /  1017.5 hPa Calm     77 % 0.00 in /  0 mm
18:46 60.6 °F /  15.9 °C 53.7 °F /  12.1 °C 30.05 in /  1017.5 hPa Calm     78 % 0.00 in /  0 mm
18:51 60.1 °F /  15.6 °C 53.6 °F /  12 °C 30.05 in /  1017.5 hPa Calm     79 % 0.00 in /  0 mm
18:56 59.9 °F /  15.5 °C 53.4 °F /  11.9 °C 30.06 in /  1017.8 hPa Calm     79 % 0.00 in /  0 mm
19:01 59.9 °F /  15.5 °C 53.4 °F /  11.9 °C 30.06 in /  1017.8 hPa Calm     79 % 0.00 in /  0 mm
19:06 59.9 °F /  15.5 °C 53.4 °F /  11.9 °C 30.06 in /  1017.8 hPa Calm     79 % 0.00 in /  0 mm
19:11 59.5 °F /  15.3 °C 53.0 °F /  11.7 °C 30.06 in /  1017.8 hPa Calm     79 % 0.00 in /  0 mm
19:16 59.1 °F /  15.1 °C 52.9 °F /  11.6 °C 30.06 in /  1017.8 hPa Calm     80 % 0.00 in /  0 mm
19:21 58.6 °F /  14.8 °C 52.8 °F /  11.6 °C 30.06 in /  1017.8 hPa Calm     81 % 0.00 in /  0 mm
19:26 58.7 °F /  14.8 °C 52.2 °F /  11.2 °C 30.06 in /  1017.8 hPa Calm     79 % 0.00 in /  0 mm
19:31 58.3 °F /  14.6 °C 52.8 °F /  11.6 °C 30.06 in /  1017.8 hPa Calm     82 % 0.00 in /  0 mm
19:36 58.3 °F /  14.6 °C 52.2 °F /  11.2 °C 30.06 in /  1017.8 hPa Calm     80 % 0.00 in /  0 mm
19:41 58.0 °F /  14.4 °C 52.2 °F /  11.2 °C 30.06 in /  1017.8 hPa Calm     81 % 0.00 in /  0 mm
19:46 57.8 °F /  14.3 °C 52.7 °F /  11.5 °C 30.06 in /  1017.8 hPa Calm     83 % 0.00 in /  0 mm
19:51 58.2 °F /  14.6 °C 52.7 °F /  11.5 °C 30.06 in /  1017.8 hPa Calm     82 % 0.00 in /  0 mm
19:56 58.3 °F /  14.6 °C 52.5 °F /  11.4 °C 30.07 in /  1018.2 hPa Calm     81 % 0.00 in /  0 mm
20:01 58.3 °F /  14.6 °C 52.8 °F /  11.6 °C 30.07 in /  1018.2 hPa Calm     82 % 0.00 in /  0 mm
20:06 58.3 °F /  14.6 °C 52.5 °F /  11.4 °C 30.07 in /  1018.2 hPa Calm     81 % 0.00 in /  0 mm
20:11 57.9 °F /  14.4 °C 52.1 °F /  11.2 °C 30.07 in /  1018.2 hPa Calm     81 % 0.00 in /  0 mm
20:16 57.6 °F /  14.2 °C 52.1 °F /  11.2 °C 30.07 in /  1018.2 hPa Calm     82 % 0.00 in /  0 mm
20:21 57.7 °F /  14.3 °C 52.2 °F /  11.2 °C 30.07 in /  1018.2 hPa Calm     82 % 0.00 in /  0 mm
20:26 57.4 °F /  14.1 °C 51.9 °F /  11.1 °C 30.07 in /  1018.2 hPa Calm     82 % 0.00 in /  0 mm
20:31 57.1 °F /  13.9 °C 52.0 °F /  11.1 °C 30.07 in /  1018.2 hPa Calm     83 % 0.00 in /  0 mm
20:36 57.2 °F /  14 °C 52.1 °F /  11.2 °C 30.07 in /  1018.2 hPa Calm     83 % 0.00 in /  0 mm
20:41 57.0 °F /  13.9 °C 51.9 °F /  11.1 °C 30.07 in /  1018.2 hPa Calm     83 % 0.00 in /  0 mm
20:46 56.6 °F /  13.7 °C 51.2 °F /  10.7 °C 30.07 in /  1018.2 hPa Calm     82 % 0.00 in /  0 mm
20:51 56.1 °F /  13.4 °C 51.3 °F /  10.7 °C 30.08 in /  1018.5 hPa Calm     84 % 0.00 in /  0 mm
20:56 55.7 °F /  13.2 °C 50.9 °F /  10.5 °C 30.08 in /  1018.5 hPa Calm     84 % 0.00 in /  0 mm
21:01 55.6 °F /  13.1 °C 51.2 °F /  10.7 °C 30.08 in /  1018.5 hPa Calm     85 % 0.00 in /  0 mm
21:06 55.3 °F /  12.9 °C 50.9 °F /  10.5 °C 30.08 in /  1018.5 hPa Calm     85 % 0.00 in /  0 mm
21:11 54.9 °F /  12.7 °C 50.5 °F /  10.3 °C 30.08 in /  1018.5 hPa Calm     85 % 0.00 in /  0 mm
21:16 54.6 °F /  12.6 °C 50.8 °F /  10.4 °C 30.08 in /  1018.5 hPa Calm     87 % 0.00 in /  0 mm
21:22 54.6 °F /  12.6 °C 50.8 °F /  10.4 °C 30.08 in /  1018.5 hPa Calm     87 % 0.00 in /  0 mm
21:27 54.4 °F /  12.4 °C 50.6 °F /  10.3 °C 30.08 in /  1018.5 hPa Calm     87 % 0.00 in /  0 mm
21:32 54.3 °F /  12.4 °C 50.5 °F /  10.3 °C 30.08 in /  1018.5 hPa Calm     87 % 0.00 in /  0 mm
21:37 54.1 °F /  12.3 °C 50.0 °F /  10 °C 30.08 in /  1018.5 hPa Calm     86 % 0.00 in /  0 mm
21:42 53.9 °F /  12.2 °C 50.1 °F /  10.1 °C 30.08 in /  1018.5 hPa Calm     87 % 0.00 in /  0 mm
21:47 53.9 °F /  12.2 °C 50.1 °F /  10.1 °C 30.08 in /  1018.5 hPa Calm     87 % 0.00 in /  0 mm
21:52 54.0 °F /  12.2 °C 50.2 °F /  10.1 °C 30.08 in /  1018.5 hPa Calm     87 % 0.00 in /  0 mm
21:57 53.9 °F /  12.2 °C 50.1 °F /  10.1 °C 30.08 in /  1018.5 hPa Calm     87 % 0.00 in /  0 mm
22:02 54.1 °F /  12.3 °C 50.0 °F /  10 °C 30.08 in /  1018.5 hPa Calm     86 % 0.00 in /  0 mm
22:07 53.9 °F /  12.2 °C 49.8 °F /  9.9 °C 30.08 in /  1018.5 hPa Calm     86 % 0.00 in /  0 mm
22:12 53.5 °F /  11.9 °C 49.4 °F /  9.7 °C 30.08 in /  1018.5 hPa Calm     86 % 0.00 in /  0 mm
22:17 53.2 °F /  11.8 °C 49.1 °F /  9.5 °C 30.08 in /  1018.5 hPa Calm     86 % 0.00 in /  0 mm
22:22 52.6 °F /  11.4 °C 48.5 °F /  9.2 °C 30.08 in /  1018.5 hPa Calm     86 % 0.00 in /  0 mm
22:27 52.1 °F /  11.2 °C 48.3 °F /  9.1 °C 30.08 in /  1018.5 hPa Calm     87 % 0.00 in /  0 mm
22:32 52.0 °F /  11.1 °C 48.6 °F /  9.2 °C 30.08 in /  1018.5 hPa Calm     88 % 0.00 in /  0 mm
22:37 51.8 °F /  11 °C 48.4 °F /  9.1 °C 30.08 in /  1018.5 hPa Calm     88 % 0.00 in /  0 mm
22:42 51.6 °F /  10.9 °C 48.5 °F /  9.2 °C 30.08 in /  1018.5 hPa Calm     89 % 0.00 in /  0 mm
22:47 51.3 °F /  10.7 °C 47.9 °F /  8.8 °C 30.08 in /  1018.5 hPa Calm     88 % 0.00 in /  0 mm
22:52 51.0 °F /  10.6 °C 47.6 °F /  8.7 °C 30.08 in /  1018.5 hPa Calm     88 % 0.00 in /  0 mm
22:57 50.8 °F /  10.4 °C 47.7 °F /  8.7 °C 30.08 in /  1018.5 hPa Calm     89 % 0.00 in /  0 mm
23:02 50.7 °F /  10.4 °C 47.6 °F /  8.7 °C 30.08 in /  1018.5 hPa Calm     89 % 0.00 in /  0 mm
23:07 50.4 °F /  10.2 °C 47.3 °F /  8.5 °C 30.08 in /  1018.5 hPa Calm     89 % 0.00 in /  0 mm
23:12 49.9 °F /  9.9 °C 46.8 °F /  8.2 °C 30.08 in /  1018.5 hPa Calm     89 % 0.00 in /  0 mm
23:17 50.1 °F /  10.1 °C 47.6 °F /  8.7 °C 30.08 in /  1018.5 hPa Calm     91 % 0.00 in /  0 mm
23:22 50.3 °F /  10.2 °C 47.5 °F /  8.6 °C 30.08 in /  1018.5 hPa Calm     90 % 0.00 in /  0 mm
23:27 50.8 °F /  10.4 °C 48.3 °F /  9.1 °C 30.08 in /  1018.5 hPa NNW 1.2 mph /  1.9 km/h 1.2 mph /  1.9 km/h 91 % 0.00 in /  0 mm
23:32 51.3 °F /  10.7 °C 48.5 °F /  9.2 °C 30.08 in /  1018.5 hPa Calm     90 % 0.00 in /  0 mm
23:37 51.6 °F /  10.9 °C 48.5 °F /  9.2 °C 30.08 in /  1018.5 hPa Calm     89 % 0.00 in /  0 mm
23:42 51.6 °F /  10.9 °C 48.5 °F /  9.2 °C 30.08 in /  1018.5 hPa Calm     89 % 0.00 in /  0 mm
23:47 51.4 °F /  10.8 °C 48.0 °F /  8.9 °C 30.08 in /  1018.5 hPa Calm     88 % 0.00 in /  0 mm
23:52 51.2 °F /  10.7 °C 47.8 °F /  8.8 °C 30.07 in /  1018.2 hPa Calm     88 % 0.00 in /  0 mm
23:57 51.0 °F /  10.6 °C 47.9 °F /  8.8 °C 30.07 in /  1018.2 hPa Calm     89 % 0.00 in /  0 mm
Park Place, Exeter, Tulare County, California, USA
Compliments of Weather Underground - 2.75 mb